createdAt,value
2019-04-21T00:01:47.450Z,10.60
2019-04-21T00:04:24.547Z,9.57
2019-04-21T00:07:08.701Z,8.70
2019-04-21T00:09:50.249Z,10.07
2019-04-21T00:12:13.992Z,8.27
2019-04-21T00:14:39.763Z,10.97
2019-04-21T00:17:07.793Z,7.70
2019-04-21T00:19:45.841Z,9.73
2019-04-21T00:22:33.150Z,10.73
2019-04-21T00:25:08.970Z,10.43
2019-04-21T00:27:38.635Z,9.20
2019-04-21T00:30:17.324Z,14.80
2019-04-21T00:32:41.856Z,16.17
2019-04-21T00:35:10.061Z,12.40
2019-04-21T00:38:13.154Z,11.95
2019-04-21T00:40:36.554Z,14.50
2019-04-21T00:43:03.724Z,12.90
2019-04-21T00:45:31.592Z,15.23
2019-04-21T00:48:11.370Z,13.67
2019-04-21T00:51:03.427Z,13.50
2019-04-21T00:53:33.433Z,10.80
2019-04-21T00:56:05.770Z,11.23
2019-04-21T00:58:33.176Z,11.05
2019-04-21T01:01:05.532Z,13.03
2019-04-21T01:03:40.170Z,12.60
2019-04-21T01:06:16.481Z,11.77
2019-04-21T01:08:51.807Z,12.07
2019-04-21T01:11:17.852Z,12.13
2019-04-21T01:14:01.040Z,10.03
2019-04-21T01:16:37.496Z,12.90
2019-04-21T01:19:03.592Z,11.18
2019-04-21T01:21:14.412Z,12.83
2019-04-21T01:23:46.539Z,11.23
2019-04-21T01:26:30.729Z,13.80
2019-04-21T01:29:06.970Z,8.73
2019-04-21T01:31:41.914Z,11.70
2019-04-21T01:34:15.041Z,12.90
2019-04-21T01:36:47.482Z,10.20
2019-04-21T01:39:27.429Z,13.83
2019-04-21T01:42:04.945Z,10.10
2019-04-21T01:44:36.094Z,12.67
2019-04-21T01:47:02.859Z,13.40
2019-04-21T01:49:29.578Z,13.30
2019-04-21T01:55:06.502Z,12.93
2019-04-21T01:57:58.939Z,13.67
2019-04-21T02:00:46.953Z,12.20
2019-04-21T02:03:41.671Z,10.90
2019-04-21T02:06:02.731Z,13.75
2019-04-21T02:08:28.769Z,11.77
2019-04-21T02:11:07.581Z,11.43
2019-04-21T02:13:35.184Z,15.93
2019-04-21T02:16:11.392Z,14.07
2019-04-21T02:18:39.006Z,11.17
2019-04-21T02:21:04.449Z,12.67
2019-04-21T02:23:57.462Z,10.97
2019-04-21T02:26:23.125Z,11.73
2019-04-21T02:31:41.826Z,12.43
2019-04-21T02:34:04.555Z,11.80
2019-04-21T02:36:58.620Z,14.33
2019-04-21T02:41:57.937Z,14.37
2019-04-21T02:46:46.399Z,11.73
2019-04-21T02:54:47.722Z,12.07
2019-04-21T02:59:55.831Z,13.57
2019-04-21T03:02:36.726Z,13.07
2019-04-21T03:05:29.650Z,15.67
2019-04-21T03:10:41.484Z,13.53
2019-04-21T03:13:06.036Z,13.03
2019-04-21T03:15:37.364Z,14.80
2019-04-21T03:20:49.104Z,14.10
2019-04-21T03:25:52.129Z,15.87
2019-04-21T03:28:29.813Z,15.40
2019-04-21T03:31:25.456Z,14.53
2019-04-21T03:38:42.991Z,15.37
2019-04-21T03:41:10.626Z,13.80
2019-04-21T03:46:25.686Z,15.68
2019-04-21T03:48:51.750Z,17.90
2019-04-21T03:54:00.258Z,14.63
2019-04-21T04:02:15.886Z,15.13
2019-04-21T04:05:08.817Z,15.77
2019-04-21T04:08:22.766Z,13.87
2019-04-21T04:10:44.576Z,15.17
2019-04-21T04:13:04.621Z,13.13
2019-04-21T04:18:17.742Z,13.27
2019-04-21T04:21:06.090Z,16.13
2019-04-21T04:23:41.459Z,19.47
2019-04-21T04:25:49.431Z,16.83
2019-04-21T04:28:28.823Z,17.53
2019-04-21T04:31:08.215Z,17.00
2019-04-21T04:36:10.802Z,15.33
2019-04-21T04:38:54.450Z,16.73
2019-04-21T04:41:43.706Z,14.90
2019-04-21T04:44:13.682Z,16.20
2019-04-21T04:46:52.821Z,14.20
2019-04-21T04:49:23.708Z,13.53
2019-04-21T04:54:31.662Z,21.07
2019-04-21T04:56:58.960Z,22.27
2019-04-21T05:02:11.609Z,17.87
2019-04-21T05:05:03.135Z,22.87
2019-04-21T05:07:11.853Z,20.15
2019-04-21T05:12:08.962Z,20.70
2019-04-21T05:14:48.278Z,21.33
2019-04-21T05:22:21.953Z,15.20
2019-04-21T05:24:49.391Z,17.23
2019-04-21T05:27:51.677Z,17.20
2019-04-21T05:30:58.384Z,17.23
2019-04-21T05:33:44.821Z,16.40
2019-04-21T05:36:52.121Z,17.00
2019-04-21T05:39:40.974Z,14.57
2019-04-21T05:42:07.223Z,16.55
2019-04-21T05:47:26.292Z,14.80
2019-04-21T05:50:06.508Z,12.73
2019-04-21T05:52:50.360Z,14.23
2019-04-21T05:55:36.103Z,14.10
2019-04-21T05:58:02.725Z,14.03
2019-04-21T06:00:59.518Z,14.40
2019-04-21T06:03:30.692Z,13.27
2019-04-21T06:05:58.447Z,11.50
2019-04-21T06:08:21.649Z,11.88
2019-04-21T06:10:55.609Z,10.68
2019-04-21T06:13:41.001Z,13.20
2019-04-21T06:16:03.215Z,15.10
2019-04-21T06:18:42.276Z,12.03
2019-04-21T06:23:40.203Z,13.77
2019-04-21T06:26:26.959Z,13.90
2019-04-21T06:28:50.270Z,11.17
2019-04-21T06:31:33.910Z,13.35
2019-04-21T06:33:57.418Z,11.80
2019-04-21T06:36:47.473Z,10.57
2019-04-21T06:39:11.986Z,10.90
2019-04-21T06:41:38.026Z,10.23
2019-04-21T06:44:12.884Z,10.07
2019-04-21T06:47:00.350Z,9.47
2019-04-21T06:49:13.345Z,9.30
2019-04-21T06:51:49.781Z,8.37
2019-04-21T06:54:27.676Z,8.40
2019-04-21T06:56:58.618Z,10.50
2019-04-21T06:59:29.300Z,10.23
2019-04-21T07:02:24.839Z,8.93
2019-04-21T07:07:12.336Z,12.73
2019-04-21T07:09:42.723Z,8.20
2019-04-21T07:12:13.714Z,8.93
2019-04-21T07:14:53.330Z,9.23
2019-04-21T07:20:01.865Z,11.03
2019-04-21T07:22:31.906Z,13.73
2019-04-21T07:25:10.551Z,10.05
2019-04-21T07:27:41.520Z,9.03
2019-04-21T07:30:17.705Z,11.60
2019-04-21T07:32:55.380Z,11.50
2019-04-21T07:35:21.754Z,9.27
2019-04-21T07:37:53.441Z,11.50
2019-04-21T07:40:22.284Z,10.00
2019-04-21T07:42:51.439Z,7.80
2019-04-21T07:45:26.557Z,12.60
2019-04-21T07:48:11.303Z,8.18
2019-04-21T07:50:57.692Z,8.83
2019-04-21T07:53:48.198Z,9.33
2019-04-21T07:55:51.273Z,8.10
2019-04-21T07:58:47.535Z,9.30
2019-04-21T08:01:18.046Z,8.70
2019-04-21T08:03:46.120Z,7.10
2019-04-21T08:06:26.826Z,8.63
2019-04-21T08:08:52.976Z,10.80
2019-04-21T08:11:25.412Z,8.50
2019-04-21T08:14:01.155Z,8.65
2019-04-21T08:16:37.251Z,7.92
2019-04-21T08:19:09.616Z,9.97
2019-04-21T08:21:43.040Z,9.93
2019-04-21T08:24:17.245Z,9.00
2019-04-21T08:26:54.013Z,8.70
2019-04-21T08:32:03.114Z,9.30
2019-04-21T08:37:02.295Z,9.80
2019-04-21T08:39:43.025Z,8.08
2019-04-21T08:42:03.322Z,8.10
2019-04-21T08:44:46.698Z,9.30
2019-04-21T08:47:18.396Z,9.27
2019-04-21T08:49:47.517Z,7.97
2019-04-21T08:52:42.516Z,6.77
2019-04-21T08:55:03.353Z,8.80
2019-04-21T08:58:14.161Z,10.13
2019-04-21T09:00:55.064Z,9.30
2019-04-21T09:03:51.961Z,7.60
2019-04-21T09:06:27.360Z,8.43
2019-04-21T09:08:55.446Z,7.93
2019-04-21T09:11:22.632Z,7.37
2019-04-21T09:13:58.511Z,6.60
2019-04-21T09:16:27.901Z,7.23
2019-04-21T09:18:57.097Z,6.20
2019-04-21T09:21:39.507Z,8.40
2019-04-21T09:24:13.391Z,11.63
2019-04-21T09:26:42.882Z,6.10
2019-04-21T09:29:13.089Z,5.95
2019-04-21T09:31:39.159Z,6.77
2019-04-21T09:34:08.376Z,7.10
2019-04-21T09:36:46.445Z,7.03
2019-04-21T09:39:18.861Z,5.70
2019-04-21T09:41:51.746Z,9.00
2019-04-21T09:44:27.537Z,5.92
2019-04-21T09:46:57.933Z,8.33
2019-04-21T09:49:31.320Z,5.73
2019-04-21T09:52:02.087Z,10.05
2019-04-21T09:54:45.233Z,6.60
2019-04-21T09:57:15.234Z,7.70
2019-04-21T09:59:47.531Z,6.73
2019-04-21T10:02:20.037Z,5.03
2019-04-21T10:04:46.789Z,5.33
2019-04-21T10:07:26.488Z,5.87
2019-04-21T10:09:52.286Z,6.73
2019-04-21T10:12:23.772Z,9.73
2019-04-21T10:14:55.367Z,7.17
2019-04-21T10:17:35.015Z,4.97
2019-04-21T10:20:09.501Z,5.73
2019-04-21T10:22:41.685Z,4.73
2019-04-21T10:25:14.529Z,7.40
2019-04-21T10:27:47.261Z,5.50
2019-04-21T10:30:20.388Z,6.77
2019-04-21T10:32:52.457Z,6.05
2019-04-21T10:35:25.041Z,7.72
2019-04-21T10:38:10.473Z,5.10
2019-04-21T10:40:32.588Z,7.28
2019-04-21T10:43:03.990Z,10.03
2019-04-21T10:45:36.883Z,5.83
2019-04-21T10:48:08.164Z,11.73
2019-04-21T10:50:39.489Z,4.97
2019-04-21T10:53:16.588Z,7.23
2019-04-21T10:56:00.368Z,9.23
2019-04-21T10:58:24.941Z,7.63
2019-04-21T11:01:23.046Z,9.55
2019-04-21T11:04:17.250Z,8.30
2019-04-21T11:06:44.401Z,7.50
2019-04-21T11:09:15.979Z,8.17
2019-04-21T11:11:50.324Z,10.20
2019-04-21T11:14:23.200Z,8.83
2019-04-21T11:16:56.504Z,7.70
2019-04-21T11:19:28.637Z,7.60
2019-04-21T11:22:01.042Z,7.87
2019-04-21T11:24:33.248Z,9.35
2019-04-21T11:27:06.717Z,12.98
2019-04-21T11:29:39.246Z,13.43
2019-04-21T11:32:10.938Z,8.93
2019-04-21T11:34:43.145Z,7.73
2019-04-21T11:37:16.626Z,6.87
2019-04-21T11:39:55.072Z,8.23
2019-04-21T11:42:30.720Z,8.07
2019-04-21T11:45:03.859Z,8.35
2019-04-21T11:47:40.671Z,7.30
2019-04-21T11:50:13.101Z,6.80
2019-04-21T11:52:47.328Z,7.97
2019-04-21T11:55:20.581Z,8.33
2019-04-21T11:57:54.538Z,10.50
2019-04-21T12:00:25.764Z,7.33
2019-04-21T12:02:57.925Z,10.10
2019-04-21T12:05:30.746Z,7.62
2019-04-21T12:08:02.149Z,8.15
2019-04-21T12:10:35.573Z,10.30
2019-04-21T12:13:08.366Z,9.55
2019-04-21T12:15:40.922Z,8.03
2019-04-21T12:18:12.636Z,10.28
2019-04-21T12:20:45.147Z,10.80
2019-04-21T12:23:16.721Z,8.73
2019-04-21T12:25:51.385Z,10.63
2019-04-21T12:28:23.880Z,11.00
2019-04-21T12:30:56.074Z,8.77
2019-04-21T12:33:45.825Z,11.93
2019-04-21T12:36:17.903Z,11.30
2019-04-21T12:38:55.563Z,9.97
2019-04-21T12:41:22.576Z,10.07
2019-04-21T12:43:54.956Z,9.93
2019-04-21T12:46:27.687Z,7.87
2019-04-21T12:48:59.950Z,8.52
2019-04-21T12:51:31.414Z,7.53
2019-04-21T12:54:03.800Z,9.33
2019-04-21T12:56:35.937Z,6.73
2019-04-21T12:59:07.990Z,9.10
2019-04-21T13:01:41.063Z,9.65
2019-04-21T13:04:13.494Z,8.77
2019-04-21T13:06:45.786Z,6.77
2019-04-21T13:09:20.326Z,8.17
2019-04-21T13:11:51.023Z,9.27
2019-04-21T13:14:22.387Z,11.60
2019-04-21T13:16:55.133Z,7.27
2019-04-21T13:19:27.333Z,7.80
2019-04-21T13:22:00.193Z,9.23
2019-04-21T13:24:33.676Z,6.53
2019-04-21T13:27:07.002Z,7.27
2019-04-21T13:29:39.518Z,10.13
2019-04-21T13:32:12.454Z,8.90
2019-04-21T13:34:44.392Z,8.47
2019-04-21T13:37:17.334Z,7.83
2019-04-21T13:40:38.845Z,8.35
2019-04-21T13:42:53.193Z,12.75
2019-04-21T13:45:21.891Z,11.70
2019-04-21T13:47:54.753Z,9.93
2019-04-21T13:50:26.185Z,11.60
2019-04-21T13:52:58.676Z,6.93
2019-04-21T13:55:30.072Z,9.53
2019-04-21T13:58:06.404Z,9.03
2019-04-21T14:00:38.031Z,8.33
2019-04-21T14:03:10.433Z,8.63
2019-04-21T14:05:42.468Z,9.30
2019-04-21T14:08:15.434Z,11.00
2019-04-21T14:10:47.346Z,9.38
2019-04-21T14:13:20.494Z,10.48
2019-04-21T14:15:51.892Z,10.58
2019-04-21T14:18:23.208Z,9.03
2019-04-21T14:20:55.491Z,7.85
2019-04-21T14:23:35.580Z,10.50
2019-04-21T14:26:01.657Z,8.33
2019-04-21T14:28:33.571Z,6.80
2019-04-21T14:31:06.217Z,7.97
2019-04-21T14:33:38.623Z,7.33
2019-04-21T14:36:10.713Z,8.37
2019-04-21T14:38:42.704Z,6.63
2019-04-21T14:41:14.612Z,7.10
2019-04-21T14:43:46.078Z,7.50
2019-04-21T14:46:22.323Z,8.75
2019-04-21T14:49:17.360Z,7.53
2019-04-21T14:52:01.465Z,6.10
2019-04-21T14:54:54.442Z,10.93
2019-04-21T14:57:27.279Z,8.18
2019-04-21T14:59:58.696Z,9.03
2019-04-21T15:02:30.004Z,8.70
2019-04-21T15:05:02.132Z,5.80
2019-04-21T15:07:33.535Z,6.43
2019-04-21T15:10:13.342Z,8.87
2019-04-21T15:12:41.453Z,10.18
2019-04-21T15:15:13.946Z,10.43
2019-04-21T15:17:46.364Z,7.43
2019-04-21T15:20:19.586Z,7.30
2019-04-21T15:22:52.807Z,7.60
2019-04-21T15:25:24.140Z,7.12
2019-04-21T15:27:55.397Z,7.23
2019-04-21T15:30:26.985Z,8.58
2019-04-21T15:32:58.704Z,9.08
2019-04-21T15:35:31.043Z,7.80
2019-04-21T15:38:04.075Z,8.90
2019-04-21T15:40:44.590Z,5.83
2019-04-21T15:43:10.585Z,6.20
2019-04-21T15:45:42.490Z,8.97
2019-04-21T15:48:14.504Z,7.10
2019-04-21T15:50:46.152Z,8.00
2019-04-21T15:53:19.379Z,7.85
2019-04-21T15:56:17.321Z,11.80
2019-04-21T15:59:04.345Z,7.95
2019-04-21T16:01:48.425Z,8.10
2019-04-21T16:04:20.842Z,8.80
2019-04-21T16:06:53.438Z,7.12
2019-04-21T16:09:26.942Z,6.53
2019-04-21T16:11:58.045Z,4.97
2019-04-21T16:14:29.334Z,7.85
2019-04-21T16:17:01.261Z,8.93
2019-04-21T16:19:33.376Z,7.20
2019-04-21T16:22:04.756Z,6.47
2019-04-21T16:24:37.783Z,5.93
2019-04-21T16:27:11.073Z,7.83
2019-04-21T16:29:43.861Z,6.13
2019-04-21T16:32:18.361Z,4.87
2019-04-21T16:34:54.352Z,4.53
2019-04-21T16:37:21.626Z,9.10
2019-04-21T16:39:53.675Z,6.00
2019-04-21T16:42:25.126Z,6.93
2019-04-21T16:44:56.826Z,5.95
2019-04-21T16:47:28.323Z,5.83
2019-04-21T16:50:01.533Z,6.65
2019-04-21T16:52:38.282Z,5.87
2019-04-21T16:55:37.064Z,5.43
2019-04-21T16:58:45.666Z,6.97
2019-04-21T17:01:22.416Z,4.83
2019-04-21T17:03:54.731Z,4.75
2019-04-21T17:06:27.010Z,7.30
2019-04-21T17:08:58.957Z,9.50
2019-04-21T17:11:35.178Z,7.03
2019-04-21T17:14:05.659Z,5.40
2019-04-21T17:17:00.272Z,6.27
2019-04-21T17:19:18.933Z,8.43
2019-04-21T17:21:43.705Z,4.83
2019-04-21T17:24:16.744Z,6.57
2019-04-21T17:26:49.539Z,5.57
2019-04-21T17:29:22.731Z,5.05
2019-04-21T17:31:55.294Z,4.33
2019-04-21T17:34:28.838Z,6.20
2019-04-21T17:37:01.017Z,5.17
2019-04-21T17:39:32.662Z,5.78
2019-04-21T17:42:15.200Z,7.80
2019-04-21T17:44:37.363Z,8.13
2019-04-21T17:47:19.238Z,4.60
2019-04-21T17:49:43.152Z,6.50
2019-04-21T17:52:45.954Z,5.37
2019-04-21T17:55:27.558Z,6.17
2019-04-21T17:58:09.757Z,6.00
2019-04-21T18:03:40.295Z,7.83
2019-04-21T18:05:56.296Z,5.10
2019-04-21T18:08:32.557Z,7.73
2019-04-21T18:10:57.912Z,5.05
2019-04-21T18:13:23.471Z,5.53
2019-04-21T18:16:08.338Z,4.67
2019-04-21T18:18:26.952Z,4.33
2019-04-21T18:21:05.260Z,4.67
2019-04-21T18:23:50.524Z,7.43
2019-04-21T18:26:31.871Z,3.50
2019-04-21T18:28:53.221Z,7.05
2019-04-21T18:31:23.020Z,12.73
2019-04-21T18:34:14.800Z,6.63
2019-04-21T18:36:52.502Z,7.60
2019-04-21T18:40:02.439Z,8.50
2019-04-21T18:42:55.536Z,6.43
2019-04-21T18:45:55.398Z,6.17
2019-04-21T18:48:21.795Z,4.73
2019-04-21T18:51:11.389Z,8.63
2019-04-21T18:54:02.208Z,6.33
2019-04-21T18:56:20.630Z,5.30
2019-04-21T18:58:51.838Z,6.97
2019-04-21T19:01:28.215Z,8.28
2019-04-21T19:03:58.316Z,5.57
2019-04-21T19:06:45.362Z,6.00
2019-04-21T19:09:26.724Z,4.03
2019-04-21T19:11:54.941Z,8.53
2019-04-21T19:14:32.274Z,6.90
2019-04-21T19:17:29.171Z,3.93
2019-04-21T19:19:46.738Z,9.75
2019-04-21T19:22:13.553Z,10.70
2019-04-21T19:24:48.970Z,4.62
2019-04-21T19:27:17.137Z,7.10
2019-04-21T19:30:02.856Z,5.60
2019-04-21T19:32:23.887Z,5.55
2019-04-21T19:34:40.869Z,8.53
2019-04-21T19:37:16.443Z,6.50
2019-04-21T19:40:00.501Z,6.03
2019-04-21T19:42:29.105Z,8.77
2019-04-21T19:45:05.641Z,9.00
2019-04-21T19:47:46.078Z,5.30
2019-04-21T19:50:16.890Z,4.63
2019-04-21T19:52:39.902Z,8.90
2019-04-21T19:55:04.410Z,6.47
2019-04-21T19:57:36.693Z,7.73
2019-04-21T20:00:10.097Z,8.97
2019-04-21T20:02:42.821Z,6.17
2019-04-21T20:05:24.435Z,7.40
2019-04-21T20:08:03.761Z,7.07
2019-04-21T20:10:42.327Z,11.15
2019-04-21T20:13:18.079Z,6.87
2019-04-21T20:15:49.092Z,6.50
2019-04-21T20:18:12.488Z,4.87
2019-04-21T20:20:35.235Z,5.10
2019-04-21T20:23:13.171Z,5.37
2019-04-21T20:25:48.463Z,7.73
2019-04-21T20:28:22.180Z,6.23
2019-04-21T20:31:08.311Z,6.10
2019-04-21T20:36:15.839Z,8.30
2019-04-21T20:38:39.926Z,4.30
2019-04-21T20:41:15.882Z,5.70
2019-04-21T20:43:58.477Z,7.00
2019-04-21T20:46:24.678Z,6.07
2019-04-21T20:48:51.237Z,6.50
2019-04-21T20:51:27.173Z,9.23
2019-04-21T20:54:03.213Z,5.93
2019-04-21T20:56:41.018Z,5.93
2019-04-21T20:59:12.099Z,8.20
2019-04-21T21:08:11.486Z,7.63
2019-04-21T21:10:38.616Z,9.67
2019-04-21T21:15:51.394Z,12.00
2019-04-21T21:18:41.092Z,10.67
2019-04-21T21:20:59.129Z,11.20
2019-04-21T21:23:33.497Z,9.90
2019-04-21T21:26:09.703Z,13.13
2019-04-21T21:28:34.078Z,8.70
2019-04-21T21:31:08.044Z,5.63
2019-04-21T21:33:52.529Z,6.10
2019-04-21T21:36:13.837Z,11.03
2019-04-21T21:38:51.844Z,9.17
2019-04-21T21:41:13.818Z,13.05
2019-04-21T21:43:39.241Z,7.73
2019-04-21T21:46:27.159Z,9.83
2019-04-21T21:48:54.082Z,6.67
2019-04-21T21:51:26.932Z,11.60
2019-04-21T21:53:48.866Z,9.00
2019-04-21T21:56:20.553Z,8.13
2019-04-21T21:58:53.436Z,10.23
2019-04-21T22:01:31.804Z,9.17
2019-04-21T22:04:08.342Z,11.67
2019-04-21T22:06:41.986Z,10.90
2019-04-21T22:09:10.034Z,11.00
2019-04-21T22:11:42.211Z,10.32
2019-04-21T22:14:22.881Z,12.03
2019-04-21T22:17:06.818Z,10.27
2019-04-21T22:19:46.921Z,11.97
2019-04-21T22:22:09.678Z,12.93
2019-04-21T22:24:41.439Z,8.77
2019-04-21T22:27:01.174Z,10.37
2019-04-21T22:29:36.379Z,10.63
2019-04-21T22:32:11.356Z,10.35
2019-04-21T22:34:47.753Z,9.87
2019-04-21T22:37:27.561Z,9.33
2019-04-21T22:39:57.894Z,11.77
2019-04-21T22:42:22.411Z,10.75
2019-04-21T22:44:50.277Z,12.10
2019-04-21T22:47:26.999Z,12.70
2019-04-21T22:49:54.712Z,12.90
2019-04-21T22:52:29.592Z,18.32
2019-04-21T22:55:00.824Z,19.40
2019-04-21T22:57:36.507Z,25.53
2019-04-21T23:00:10.778Z,27.67
2019-04-21T23:02:39.361Z,27.83
2019-04-21T23:05:15.558Z,26.07
2019-04-21T23:07:51.200Z,11.30
2019-04-21T23:10:19.224Z,11.57
2019-04-21T23:12:52.192Z,7.53
2019-04-21T23:15:33.228Z,7.80
2019-04-21T23:18:12.060Z,8.00
2019-04-21T23:20:47.640Z,8.13
2019-04-21T23:23:23.685Z,12.23
2019-04-21T23:25:53.098Z,9.03
2019-04-21T23:28:29.707Z,13.25
2019-04-21T23:31:00.436Z,10.77
2019-04-21T23:33:19.226Z,12.70
2019-04-21T23:35:49.505Z,9.53
2019-04-21T23:38:28.211Z,12.15
2019-04-21T23:40:58.692Z,8.50
2019-04-21T23:43:30.010Z,9.83
2019-04-21T23:46:04.221Z,9.47
2019-04-21T23:48:48.886Z,10.00
2019-04-21T23:51:15.961Z,12.83
2019-04-21T23:53:41.481Z,11.53
2019-04-21T23:56:20.262Z,7.67
2019-04-21T23:58:51.978Z,13.13
